航空気象通報

ウインドサーファーのための航空気象通報による風予報です。

11/30-12/1の航空気象通報(国内、海外)

2007年11月30日 20時49分03秒 | TAF
羽田空港
TAF RJTT 300840Z 301812 36008KT 9999 FEW030 SCT050
BECMG 0306 15006KT
BECMG 0912 35014KT
日本時間1日03-12時:360度から8ノットの風
12-15時:風が変化
15-18時:150度から6ノットの風
18-21時:風が変化
21時:350度から14ノットの風


那覇空港
TAF ROAH 300841Z 301812 01014KT 9999 FEW035
日本時間1日03-21時:010度から14ノットの風


マウイのカフルイ空港
PHOG 301120Z 301212 14008KT P6SM SCT050
FM2200 34010KT P6SM SCT040 BKN050
ハワイ時間30日02-12時:140度から8ノットの風

12時-1日02時:340度から10ノットの風


サイパン空港
PGSN 301123Z 301212 08009KT P6SM FEW020
マリアナ時間30日22時-1日22時:080度から9ノットの風


グアム空港
TAFPQ TAF PGUM 301123Z 301212 09007KT P6SM SCT018
マリアナ時間30日22時-1日22時:090度から7ノットの風

コメント

11/29-30の航空気象通報(国内、海外)

2007年11月29日 23時01分01秒 | TAF
羽田空港
TAF RJTT 290843Z 291812 36012KT 9999 FEW030 SCT060
BECMG 0609 07006KT
日本時間30日03-15時:360度から12ノットの風
15-18時:風が変化
18-21時:070度から6ノットの風


那覇空港
TAF ROAH 290841Z 291812 01020KT 9999 FEW020 SCT045
日本時間30日03-21時:010度から20ノットの風


マウイのカフルイ空港
PHOG 291136Z 291212 VRB05KT P6SM SCT020 BKN150
FM1400 12007KT P6SM SCT030
FM2000 09012KT P6SM SCT040 BKN070
FM0500 VRB05KT P6SM SCT035 SCT050
ハワイ時間29日02-04時:風向不定5ノットの風、
04-10時:120度から7ノットの風、
10-19時:090度から12ノットの風、
19時-30日02時:風向不定5ノットの風、

サイパン空港
PGSN 291120Z 291212 13005KT P6SM VCSH SCT017
マリアナ時間29日22時-30日22時:130度から5ノットの風


グアム空港
TAFPQ TAF PGUM 291120Z 291212 13005KT P6SM VCSH SCT017
マリアナ時間29日22時-30日22時:130度から5ノットの風

コメント

11/28-29の航空気象通報(国内、海外)

2007年11月28日 23時56分10秒 | TAF
羽田空港
TAF RJTT 280852Z 281812 01016KT 9999 -RA FEW015 BKN025 BKN050
日本時間29日03-21時:010度から16ノットの風


那覇空港
TAF ROAH 280840Z 281812 01018KT 9999 FEW020 SCT040
日本時間29日03-21時:010度から18ノットの風


マウイのカフルイ空港
PHOG 281139Z 281212 14005KT P6SM SCT050
FM2100 09013KT P6SM BKN050
FM0300 09013KT P6SM VCSH BKN050
FM0700 14005KT P6SM VCSH BKN045
ハワイ時間29日02-11時:140度から5ノットの風

11-17時:090度から13ノットの風
17-21時:090度から13ノットの風
22時-28日02時:140度から5ノットの風


サイパン空港
PGSN 281126Z 281212 16010KT P6SM VCSH SCT015 BKN050
TEMPO 1215 5SM -SHRA SCT010 BKN015
マリアナ時間28日22時-29日22時:160度から10ノットの風
、但し、28日22時-29日01時:一時、

グアム空港
TAFPQ TAF PGUM 281126Z 281212 18007KT P6SM VCSH SCT015 BKN040
TEMPO 1215 4SM SHRA SCT010 BKN015
FM2300 16011G17KT P6SM VCSH SCT020
マリアナ時間28日22時-29日09時:180度から7ノットの風

但し、28日22時-29日01時:一時、
29日09-22時:160度から11ノット、突風17ノット

コメント

11/27-28の航空気象通報(国内、海外)

2007年11月27日 21時30分06秒 | TAF
羽田空港
TAF RJTT 270841Z 271812 02012KT 9999 FEW030 SCT050
日本時間28日03-21時:020度から12ノットの風


那覇空港
TAF ROAH 270849Z 271812 04016G26KT 9999 -SHRA FEW010 SCT015 BKN020
TEMPO 0006 4000 SHRA
日本時間28日03-21時:040度から16ノット、突風26ノット


マウイのカフルイ空港
PHOG 271121Z 271212 11006KT P6SM OVC070
FM2000 04012G20KT P6SM SCT070
FM0300 07006KT P6SM BKN070
FM0800 11005KT P6SM SCT070
ハワイ時間27日02-10時:110度から6ノットの風、
10-17時:040度から12ノット、突風20ノット、
17-22時:070度から6ノットの風、
22時-28日02時:110度から5ノットの風、

サイパン空港
PGSN 271132Z 271212 11016G24KT P6SM VCSH SCT015 SCT040
マリアナ時間27日22時-28日22時:110度から16ノット、突風24ノット


グアム空港
TAFPQ TAF PGUM 271132Z 271212 13010G20KT P6SM VCSH FEW010CB BKN015 BKN120
TEMPO 1418 13016G26KT 5SM -SHRA SCT010 BKN015
FM1800 13010G20KT P6SM VCSH SCT015 BKN120
マリアナ時間27日22時-28日04時:130度から10ノット、突風20ノット

但し、27日22時-28日04時:一時、130度から16ノット、突風26ノット、
28日04-22時:130度から10ノット、突風20ノット

コメント

11/26-27の航空気象通報(国内、海外)

2007年11月26日 21時29分13秒 | TAF
羽田空港
TAF RJTT 260845Z 261812 01010KT 9999 FEW030 SCT060
日本時間27日03-21時:010度から10ノットの風


那覇空港
TAF ROAH 260841Z 261812 06014KT 9999 FEW015 SCT025 BKN045
TEMPO 0003 4000 SHRA
BECMG 0306 03024KT
日本時間27日03-12時:060度から14ノットの風
12-15時:風が変化
15-21時:030度から24ノットの風
、但し、09-12時:一時、

マウイのカフルイ空港
PHOG 261128Z 261212 11006KT P6SM SKC
FM2000 04012G20KT P6SM SCT050
FM0500 07006KT P6SM FEW050
FM0900 11006KT P6SM SKC
ハワイ時間26日02-10時:110度から6ノットの風
10-19時:040度から12ノット、突風20ノット
19-23時:070度から6ノットの風
23時-27日02時:110度から6ノットの風


サイパン空港
PGSN 261120Z 261212 09014G20KT P6SM VCSH SCT020 SCT040 BKN120
TEMPO 1214 11015G25KT 3SM SHRA BKN020 BKN120
FM2000 12015G25KT P6SM -RA SCT020 BKN030 OVC120
TEMPO 2024 3SM SHRA BKN020CB BKN030 OVC120
マリアナ時間26日22時-27日06時:090度から14ノット、突風20ノット

但し、26日22-24時:一時、110度から15ノット、突風25ノット、
27日06-22時:120度から15ノット、突風25ノット
、但し、27日06-10時:一時、

グアム空港
TAFPQ TAF PGUM 261120Z 261212 10012G18KT P6SM VCSH FEW020 BKN120 BKN300
TEMPO 1418 12015G25KT 3SM SHRA BKN020CB OVC120
FM1800 14012G24KT P6SM -RA SCT020 BKN030 OVC120
TEMPO 1822 3SM SHRA BKN020CB BKN030 OVC120
マリアナ時間26日22時-27日04時:100度から12ノット、突風18ノット

但し、26日22時-27日04時:一時、120度から15ノット、突風25ノット、
27日04-22時:140度から12ノット、突風24ノット
、但し、27日04-10時:一時、
コメント